Time;durP1;ratioP1;P1;durP2;ratioP2;P2;SDS_P1;SDS_P2;PMS_P1;PMS_P2;Temp;Humidity;BMP_temperature;BMP_pressure;BME280_temperature;BME280_humidity;BME280_pressure;Samples;Min_cycle;Max_cycle;Signal;HPM_P1;HPM_P2
2022/03/01 05:01:22;;;;;;;17.07;8.63;;;0.30;99.10;;;;;;5552977;23;21005;-78
2022/03/01 05:03:49;;;;;;;18.10;8.90;;;0.30;99.20;;;;;;4954414;28;20533;-78
2022/03/01 05:06:16;;;;;;;19.07;9.63;;;0.30;99.30;;;;;;4954682;28;20461;-78
2022/03/01 05:08:43;;;;;;;16.90;8.37;;;0.30;99.30;;;;;;4954521;28;20483;-78
2022/03/01 05:11:10;;;;;;;16.37;9.20;;;0.20;99.30;;;;;;4946679;28;20478;-78
2022/03/01 05:13:37;;;;;;;16.37;10.17;;;0.20;99.20;;;;;;4974079;23;20591;-73
2022/03/01 05:16:04;;;;;;;15.73;9.23;;;0.20;99.10;;;;;;4973813;28;20457;-72
2022/03/01 05:18:32;;;;;;;21.80;10.37;;;0.20;99.20;;;;;;4972851;28;20552;-73
2022/03/01 05:20:59;;;;;;;19.00;9.50;;;0.10;99.20;;;;;;4973541;28;20833;-72
2022/03/01 05:23:27;;;;;;;18.10;9.57;;;0.10;99.20;;;;;;4973495;28;20848;-72
2022/03/01 05:25:54;;;;;;;15.33;9.00;;;0.10;99.10;;;;;;4973725;28;20482;-75
2022/03/01 05:28:21;;;;;;;17.93;9.50;;;0.10;99.10;;;;;;4973480;28;20460;-75
2022/03/01 05:30:48;;;;;;;17.60;10.30;;;0.00;99.00;;;;;;4973150;28;20831;-74
2022/03/01 05:33:15;;;;;;;21.03;9.27;;;0.00;99.10;;;;;;4973338;28;20476;-73
2022/03/01 05:35:44;;;;;;;18.83;8.97;;;0.00;99.10;;;;;;4973543;28;20464;-74
2022/03/01 05:38:11;;;;;;;19.63;10.97;;;0.00;99.30;;;;;;4973524;28;20519;-73
2022/03/01 05:40:39;;;;;;;17.40;10.00;;;0.00;99.50;;;;;;4973212;28;20536;-75
2022/03/01 05:43:07;;;;;;;21.20;10.70;;;0.00;99.60;;;;;;4972869;28;20496;-73
2022/03/01 05:45:34;;;;;;;16.60;9.20;;;0.00;99.70;;;;;;4972526;28;20519;-74
2022/03/01 05:48:01;;;;;;;17.67;8.87;;;0.00;99.80;;;;;;4973210;28;20823;-74
2022/03/01 05:50:28;;;;;;;16.63;8.90;;;0.00;99.90;;;;;;4973037;28;20484;-73
2022/03/01 05:52:57;;;;;;;15.10;9.07;;;0.00;99.90;;;;;;4973190;28;20531;-74
2022/03/01 05:55:24;;;;;;;16.90;9.30;;;0.00;99.90;;;;;;4973195;28;20534;-74
2022/03/01 05:57:51;;;;;;;16.73;9.10;;;0.00;99.80;;;;;;4972955;28;20925;-73
2022/03/01 06:00:20;;;;;;;13.60;8.50;;;-0.10;99.60;;;;;;4972654;28;20503;-73
2022/03/01 06:02:49;;;;;;;22.73;9.37;;;-0.10;99.50;;;;;;4972840;28;20528;-73
2022/03/01 06:05:16;;;;;;;15.77;8.57;;;-0.10;99.60;;;;;;4973177;28;20471;-73
2022/03/01 06:07:44;;;;;;;16.27;9.27;;;-0.20;99.60;;;;;;4973007;28;20543;-68
2022/03/01 06:10:12;;;;;;;17.40;9.60;;;-0.20;99.60;;;;;;4972669;28;20945;-69
2022/03/01 06:12:40;;;;;;;19.60;9.13;;;-0.30;99.90;;;;;;4972550;28;20455;-73
2022/03/01 06:15:07;;;;;;;16.73;9.73;;;-0.30;99.90;;;;;;4973023;28;20461;-73
2022/03/01 06:17:34;;;;;;;15.57;9.27;;;-0.30;99.90;;;;;;4972837;28;20461;-73
2022/03/01 06:20:02;;;;;;;18.00;9.60;;;-0.30;99.80;;;;;;4972011;28;20552;-73
2022/03/01 06:22:29;;;;;;;18.30;9.80;;;-0.40;99.70;;;;;;4954291;28;20498;-73
2022/03/01 06:24:56;;;;;;;17.30;9.83;;;-0.30;99.70;;;;;;4953807;28;20485;-73
2022/03/01 06:27:24;;;;;;;19.90;9.97;;;-0.30;99.70;;;;;;4953654;28;20456;-74
2022/03/01 06:29:52;;;;;;;18.37;7.87;;;-0.30;99.70;;;;;;4953333;28;20454;-73
2022/03/01 06:32:18;;;;;;;18.00;9.90;;;-0.30;99.40;;;;;;4953656;28;20540;-73
2022/03/01 06:34:45;;;;;;;18.33;9.40;;;-0.30;99.40;;;;;;4953499;28;20473;-73
2022/03/01 06:37:13;;;;;;;15.73;8.80;;;-0.30;99.30;;;;;;4953549;28;20461;-74
2022/03/01 06:39:41;;;;;;;18.80;9.80;;;-0.30;99.30;;;;;;4953664;28;20460;-73
2022/03/01 06:42:09;;;;;;;16.37;9.70;;;-0.30;99.20;;;;;;4953445;28;20497;-74
2022/03/01 06:44:37;;;;;;;16.30;8.77;;;-0.30;99.20;;;;;;4953346;28;20485;-73
2022/03/01 06:47:05;;;;;;;18.63;8.70;;;-0.30;99.20;;;;;;4953450;28;20453;-73
2022/03/01 06:49:32;;;;;;;14.23;8.87;;;-0.30;99.20;;;;;;4953138;28;20467;-73
2022/03/01 06:51:59;;;;;;;15.17;8.90;;;-0.30;99.10;;;;;;4953398;28;20905;-73
2022/03/01 06:54:26;;;;;;;17.30;9.20;;;-0.30;99.10;;;;;;4953308;28;20580;-73
2022/03/01 06:56:53;;;;;;;14.70;8.90;;;-0.30;99.00;;;;;;4956915;28;20465;-73
2022/03/01 06:59:20;;;;;;;17.10;9.00;;;-0.30;99.10;;;;;;4956866;28;20461;-74
2022/03/01 07:01:48;;;;;;;14.47;8.23;;;-0.30;98.80;;;;;;4956782;28;20544;-73
2022/03/01 07:04:15;;;;;;;19.20;10.37;;;-0.30;98.90;;;;;;4956841;28;20989;-73
2022/03/01 07:06:42;;;;;;;14.57;7.90;;;-0.30;99.20;;;;;;4956792;28;20457;-73
2022/03/01 07:09:09;;;;;;;14.07;8.70;;;-0.20;99.80;;;;;;4956477;28;20493;-73
2022/03/01 07:11:36;;;;;;;13.83;8.50;;;-0.30;99.90;;;;;;4956308;28;20449;-73
2022/03/01 07:14:03;;;;;;;17.30;9.47;;;-0.20;99.90;;;;;;4955815;28;20576;-74
2022/03/01 07:16:30;;;;;;;17.63;8.47;;;-0.20;99.90;;;;;;4955964;28;20465;-73
2022/03/01 07:18:59;;;;;;;14.20;8.63;;;-0.10;99.90;;;;;;4954515;28;20679;-74
2022/03/01 07:21:26;;;;;;;22.40;9.90;;;-0.10;99.90;;;;;;4954626;28;20953;-74
2022/03/01 07:23:53;;;;;;;16.13;8.90;;;0.00;99.90;;;;;;4955033;28;20481;-74
2022/03/01 07:26:20;;;;;;;18.17;9.87;;;0.00;99.90;;;;;;4956003;28;20462;-74
2022/03/01 07:28:47;;;;;;;20.07;9.37;;;0.00;99.90;;;;;;4955755;28;20461;-74
2022/03/01 07:31:14;;;;;;;16.07;8.27;;;0.10;99.90;;;;;;4955747;28;20454;-74
2022/03/01 07:33:41;;;;;;;14.13;8.57;;;0.10;99.70;;;;;;4955505;28;20560;-74
2022/03/01 07:36:09;;;;;;;17.93;9.90;;;0.20;99.80;;;;;;4956251;28;20468;-74
2022/03/01 07:38:36;;;;;;;14.47;9.17;;;0.30;99.90;;;;;;4956249;28;20465;-74
2022/03/01 07:41:03;;;;;;;15.80;9.20;;;0.40;99.70;;;;;;4956098;28;20483;-74
2022/03/01 07:43:29;;;;;;;14.53;8.10;;;0.40;99.80;;;;;;4956219;28;20497;-74
2022/03/01 07:45:56;;;;;;;17.93;8.97;;;0.50;99.70;;;;;;4956084;28;20460;-74
2022/03/01 07:48:23;;;;;;;15.77;8.87;;;0.50;99.50;;;;;;4955829;28;20544;-74
2022/03/01 07:50:50;;;;;;;15.40;8.90;;;0.60;99.70;;;;;;4956053;28;20457;-74
2022/03/01 07:53:18;;;;;;;17.23;8.70;;;0.70;99.80;;;;;;4956060;28;20556;-74
2022/03/01 07:55:45;;;;;;;14.00;7.90;;;0.70;99.60;;;;;;4956019;28;20456;-74
2022/03/01 07:58:12;;;;;;;13.10;8.07;;;0.80;99.60;;;;;;4956068;28;21045;-74
2022/03/01 08:00:39;;;;;;;13.30;8.37;;;0.90;99.00;;;;;;4955645;28;20457;-74
2022/03/01 08:03:06;;;;;;;14.13;8.70;;;1.00;99.20;;;;;;4955362;28;20581;-73
2022/03/01 08:05:32;;;;;;;14.20;8.07;;;1.10;99.00;;;;;;4955889;28;20480;-73
2022/03/01 08:07:59;;;;;;;14.50;8.40;;;1.20;99.50;;;;;;4955192;28;20497;-73
2022/03/01 08:10:28;;;;;;;14.30;8.97;;;1.30;99.10;;;;;;4955925;28;20453;-74
2022/03/01 08:12:55;;;;;;;13.47;8.40;;;1.40;99.60;;;;;;4955489;28;20462;-75
2022/03/01 08:15:25;;;;;;;15.13;8.20;;;1.50;99.20;;;;;;4955689;28;20469;-74
2022/03/01 08:17:53;;;;;;;13.43;8.80;;;1.70;98.50;;;;;;4955550;28;20821;-74
2022/03/01 08:20:21;;;;;;;10.83;7.00;;;1.70;98.30;;;;;;4955348;28;20946;-74
2022/03/01 08:22:48;;;;;;;13.87;7.90;;;1.90;98.60;;;;;;4955272;28;20593;-74
2022/03/01 08:25:15;;;;;;;12.43;8.20;;;2.00;98.00;;;;;;4955398;28;20471;-74
2022/03/01 08:27:44;;;;;;;12.13;7.77;;;2.10;98.30;;;;;;4955221;28;20492;-75
2022/03/01 08:30:12;;;;;;;14.47;9.13;;;2.20;98.40;;;;;;4954878;28;20485;-74
2022/03/01 08:32:39;;;;;;;14.40;8.20;;;2.30;97.60;;;;;;4955280;28;20565;-74
2022/03/01 08:35:07;;;;;;;12.00;7.70;;;2.40;97.90;;;;;;4955293;28;20544;-74
2022/03/01 08:37:34;;;;;;;14.47;7.87;;;2.50;97.60;;;;;;4955182;28;20456;-75
2022/03/01 08:40:01;;;;;;;11.80;7.50;;;2.70;99.10;;;;;;4955252;28;20453;-75
2022/03/01 08:42:28;;;;;;;14.90;9.10;;;2.90;97.60;;;;;;4954764;28;20497;-74
2022/03/01 08:44:56;;;;;;;13.27;7.90;;;3.00;97.50;;;;;;4955216;28;20477;-74
2022/03/01 08:47:24;;;;;;;12.83;7.57;;;3.10;98.10;;;;;;4955263;28;20469;-75
2022/03/01 08:49:51;;;;;;;14.43;7.30;;;3.20;96.10;;;;;;4954863;28;20458;-75
2022/03/01 08:52:18;;;;;;;12.93;8.17;;;3.40;96.90;;;;;;4954962;28;20849;-75
2022/03/01 08:54:45;;;;;;;11.83;7.67;;;3.60;96.90;;;;;;4955338;28;20484;-75
2022/03/01 08:57:12;;;;;;;12.70;7.20;;;3.80;95.50;;;;;;4954797;28;20453;-74
2022/03/01 08:59:39;;;;;;;12.63;7.10;;;4.10;94.60;;;;;;4954863;28;20461;-75
2022/03/01 09:02:07;;;;;;;10.70;6.47;;;4.40;95.40;;;;;;4954612;28;20984;-75
2022/03/01 09:04:34;;;;;;;13.20;7.00;;;4.60;94.00;;;;;;4954819;28;20477;-74
2022/03/01 09:07:03;;;;;;;13.47;7.30;;;4.80;94.20;;;;;;4954332;28;20498;-75
2022/03/01 09:09:31;;;;;;;13.30;7.70;;;5.00;94.10;;;;;;4954145;28;20839;-74
2022/03/01 09:11:57;;;;;;;13.77;7.43;;;5.20;92.00;;;;;;4954550;28;20465;-75
2022/03/01 09:14:24;;;;;;;14.60;7.90;;;5.30;93.50;;;;;;4954402;28;20863;-75
2022/03/01 09:16:51;;;;;;;11.50;7.43;;;5.50;93.50;;;;;;4954447;28;20457;-75
2022/03/01 09:19:19;;;;;;;10.00;6.80;;;5.70;93.40;;;;;;4954135;28;20457;-74
2022/03/01 09:21:47;;;;;;;14.60;7.33;;;5.90;93.30;;;;;;4954351;28;20824;-74
2022/03/01 09:24:13;;;;;;;12.20;7.33;;;6.10;91.80;;;;;;4953682;28;20588;-75
2022/03/01 09:26:40;;;;;;;12.47;7.60;;;6.30;91.70;;;;;;4954126;28;20544;-75
2022/03/01 09:29:07;;;;;;;13.87;7.60;;;6.40;91.70;;;;;;4954144;28;20800;-75
2022/03/01 09:31:34;;;;;;;13.13;7.70;;;6.50;92.50;;;;;;4954212;28;20464;-75
2022/03/01 09:34:01;;;;;;;12.63;7.73;;;6.70;93.10;;;;;;4954100;28;20483;-75
2022/03/01 09:36:29;;;;;;;14.80;7.70;;;6.80;92.00;;;;;;4954201;28;20559;-75
2022/03/01 09:38:56;;;;;;;10.70;7.47;;;7.00;91.40;;;;;;4953670;28;20461;-75
2022/03/01 09:41:23;;;;;;;12.07;8.00;;;7.20;91.30;;;;;;4954280;28;20554;-75
2022/03/01 09:43:53;;;;;;;11.90;7.77;;;7.40;91.60;;;;;;4953753;28;20511;-75
2022/03/01 09:46:20;;;;;;;13.30;7.40;;;7.60;90.50;;;;;;4954002;28;20475;-75
2022/03/01 09:48:47;;;;;;;13.27;7.73;;;7.80;92.20;;;;;;4954049;28;20551;-75
2022/03/01 09:51:16;;;;;;;13.33;8.07;;;7.90;90.10;;;;;;4953620;28;21045;-75
2022/03/01 09:53:46;;;;;;;12.10;7.70;;;7.90;88.80;;;;;;4953879;28;20556;-75
2022/03/01 09:56:14;;;;;;;11.30;7.30;;;7.90;91.20;;;;;;4953939;28;20472;-75
2022/03/01 09:58:41;;;;;;;15.20;7.67;;;8.00;89.60;;;;;;4953786;28;20491;-75
2022/03/01 10:01:08;;;;;;;12.63;8.10;;;8.20;86.70;;;;;;4953642;28;20523;-75
2022/03/01 10:03:36;;;;;;;11.70;7.87;;;8.20;87.20;;;;;;4953532;28;20504;-75
2022/03/01 10:06:07;;;;;;;13.93;7.63;;;8.60;90.10;;;;;;4953541;28;20458;-75
2022/03/01 10:08:34;;;;;;;12.67;7.80;;;8.80;88.30;;;;;;4953676;28;20461;-75
2022/03/01 10:11:04;;;;;;;12.03;7.73;;;9.20;90.00;;;;;;4953686;28;20542;-75
2022/03/01 10:13:32;;;;;;;11.70;7.90;;;9.20;84.50;;;;;;4953519;28;20535;-75
2022/03/01 10:16:07;;;;;;;9.50;7.17;;;9.30;87.10;;;;;;4953581;28;20462;-76
2022/03/01 10:18:37;;;;;;;14.87;7.40;;;9.60;85.00;;;;;;4953327;28;20472;-76
2022/03/01 10:21:06;;;;;;;12.37;8.23;;;9.60;81.70;;;;;;4953518;28;20441;-75
2022/03/01 10:23:34;;;;;;;12.60;7.77;;;9.70;83.80;;;;;;4953431;28;20497;-75
2022/03/01 10:26:13;;;;;;;9.50;7.07;;;9.80;83.60;;;;;;4953757;28;20489;-75
2022/03/01 10:28:41;;;;;;;12.20;7.63;;;10.10;79.60;;;;;;4953461;28;20436;-75
2022/03/01 10:31:13;;;;;;;8.23;6.20;;;10.00;79.00;;;;;;4955851;28;20450;-75
2022/03/01 10:33:40;;;;;;;10.70;7.63;;;10.00;81.40;;;;;;4957281;28;20569;-75
2022/03/01 10:36:08;;;;;;;11.70;7.40;;;10.50;76.60;;;;;;4957394;28;20445;-75
2022/03/01 10:38:38;;;;;;;9.30;7.03;;;10.60;76.70;;;;;;4957297;28;20548;-75
2022/03/01 10:41:05;;;;;;;11.47;7.90;;;10.60;75.70;;;;;;4957143;28;20461;-75
2022/03/01 10:43:34;;;;;;;12.97;7.50;;;10.70;75.00;;;;;;4957111;28;20540;-75
2022/03/01 10:46:07;;;;;;;11.80;7.77;;;10.80;73.50;;;;;;4957639;28;20864;-75
2022/03/01 10:48:35;;;;;;;10.23;6.77;;;10.90;72.80;;;;;;4957075;28;20480;-76
2022/03/01 10:51:04;;;;;;;12.83;8.03;;;11.00;72.90;;;;;;4956915;28;20979;-76
2022/03/01 10:53:33;;;;;;;12.30;7.47;;;11.10;72.40;;;;;;4956895;28;20512;-75
2022/03/01 10:56:04;;;;;;;9.50;6.83;;;11.10;75.30;;;;;;4956700;28;20449;-76
2022/03/01 10:58:35;;;;;;;13.33;7.40;;;11.10;72.00;;;;;;4956719;28;20549;-75
2022/03/01 11:01:02;;;;;;;13.27;7.80;;;11.20;71.50;;;;;;4956925;28;20867;-75
2022/03/01 11:03:30;;;;;;;10.37;7.47;;;11.50;72.00;;;;;;4956558;28;20592;-75
2022/03/01 11:05:58;;;;;;;11.03;7.17;;;11.40;69.70;;;;;;4956748;28;20825;-76
2022/03/01 11:08:31;;;;;;;11.63;6.90;;;11.40;72.70;;;;;;4956419;28;20441;-76
2022/03/01 11:11:00;;;;;;;10.10;7.67;;;11.50;71.70;;;;;;4956599;28;20958;-75
2022/03/01 11:13:27;;;;;;;9.70;7.10;;;11.70;69.30;;;;;;4995014;23;20505;-75
2022/03/01 11:16:11;;;;;;;10.83;7.20;;;11.60;70.40;;;;;;4956772;28;20548;-75
2022/03/01 11:18:50;;;;;;;10.80;7.87;;;11.40;70.60;;;;;;4956178;28;20543;-74
2022/03/01 11:21:18;;;;;;;9.80;7.40;;;11.40;72.70;;;;;;4956634;28;20453;-75
2022/03/01 11:23:45;;;;;;;10.57;7.03;;;11.90;72.90;;;;;;4956287;28;20504;-74
2022/03/01 11:26:14;;;;;;;13.43;7.53;;;12.20;69.90;;;;;;4956329;28;20999;-75
2022/03/01 11:28:51;;;;;;;10.13;7.13;;;12.10;67.80;;;;;;4956121;28;20453;-76
2022/03/01 11:31:22;;;;;;;9.20;6.87;;;12.10;68.80;;;;;;4956151;28;20484;-76
2022/03/01 11:34:01;;;;;;;6.77;6.10;;;12.10;67.30;;;;;;4956441;28;20594;-76
2022/03/01 11:36:30;;;;;;;10.70;6.70;;;12.10;70.20;;;;;;4956166;28;20557;-76
2022/03/01 11:39:09;;;;;;;10.07;7.30;;;12.50;69.80;;;;;;4956125;28;20529;-70
2022/03/01 11:41:43;;;;;;;9.47;7.13;;;12.50;68.00;;;;;;4954919;28;20458;-70
2022/03/01 11:44:11;;;;;;;13.33;7.43;;;12.60;67.40;;;;;;4956175;28;20493;-70
2022/03/01 11:46:45;;;;;;;10.53;6.97;;;12.50;63.70;;;;;;4955757;28;20968;-70
2022/03/01 11:49:13;;;;;;;8.47;6.10;;;12.50;65.90;;;;;;4955850;28;20449;-70
2022/03/01 11:51:48;;;;;;;8.80;7.00;;;12.80;65.20;;;;;;4955898;28;20544;-70
2022/03/01 11:54:21;;;;;;;11.23;7.20;;;12.70;63.80;;;;;;4955572;28;20473;-70
2022/03/01 11:56:50;;;;;;;10.80;6.60;;;12.90;65.40;;;;;;4955767;28;20965;-70
2022/03/01 11:59:18;;;;;;;10.10;7.40;;;13.00;65.90;;;;;;4955821;28;20461;-71
2022/03/01 12:01:47;;;;;;;10.80;7.40;;;13.00;65.20;;;;;;4956078;29;20453;-73
2022/03/01 12:04:19;;;;;;;11.20;7.17;;;13.00;61.40;;;;;;4955662;28;20497;-73
2022/03/01 12:06:52;;;;;;;9.77;7.07;;;13.20;63.90;;;;;;4955508;28;20454;-73
2022/03/01 12:09:19;;;;;;;8.23;6.63;;;13.30;63.20;;;;;;4955770;28;20453;-73
2022/03/01 12:11:47;;;;;;;11.20;7.50;;;13.40;60.70;;;;;;4955560;28;20531;-74
2022/03/01 12:14:18;;;;;;;10.67;7.50;;;13.10;62.20;;;;;;4955147;28;20488;-75
2022/03/01 12:16:48;;;;;;;10.95;7.15;;;13.10;62.80;;;;;;4955728;28;20455;-75
2022/03/01 12:19:17;;;;;;;9.30;7.10;;;13.50;66.20;;;;;;4955234;28;20218;-74
2022/03/01 12:21:49;;;;;;;9.83;7.20;;;13.60;59.70;;;;;;4955422;28;20528;-74
2022/03/01 12:24:17;;;;;;;9.33;7.00;;;13.30;64.00;;;;;;4955352;28;20552;-74
2022/03/01 12:26:46;;;;;;;11.57;8.20;;;13.40;63.20;;;;;;4955219;28;20954;-74
2022/03/01 12:29:15;;;;;;;9.43;6.97;;;13.70;64.30;;;;;;4955116;28;20540;-73
2022/03/01 12:31:44;;;;;;;12.05;7.63;;;13.50;59.00;;;;;;4954936;28;21016;-74
2022/03/01 12:34:12;;;;;;;10.80;7.50;;;13.00;59.80;;;;;;4955219;28;20258;-73
2022/03/01 12:36:44;;;;;;;10.07;6.73;;;12.60;59.60;;;;;;4955548;28;20529;-74
2022/03/01 12:39:13;;;;;;;10.37;7.67;;;12.30;59.70;;;;;;4955404;28;20489;-74
2022/03/01 12:41:42;;;;;;;9.73;7.20;;;12.10;61.00;;;;;;4955239;28;20452;-74
2022/03/01 12:44:11;;;;;;;11.40;6.90;;;11.90;60.80;;;;;;4954796;28;20500;-74
2022/03/01 12:46:39;;;;;;;10.57;7.27;;;11.80;65.60;;;;;;4955109;28;20465;-74
2022/03/01 12:49:09;;;;;;;9.73;6.93;;;11.90;64.50;;;;;;4954607;28;20990;-74
2022/03/01 12:51:38;;;;;;;11.47;6.67;;;12.00;63.70;;;;;;4955132;28;20457;-74
2022/03/01 12:54:09;;;;;;;12.90;6.87;;;12.20;66.10;;;;;;4954544;28;20497;-74
2022/03/01 12:56:37;;;;;;;9.77;7.40;;;12.40;63.00;;;;;;4954593;28;20544;-74
2022/03/01 12:59:05;;;;;;;10.40;7.23;;;12.30;63.10;;;;;;4954634;28;20460;-74
2022/03/01 13:01:33;;;;;;;10.27;7.20;;;12.30;65.60;;;;;;4954603;28;20930;-74
2022/03/01 13:04:00;;;;;;;11.00;7.33;;;12.50;64.10;;;;;;4954455;28;21017;-74
2022/03/01 13:06:27;;;;;;;10.90;7.60;;;12.50;63.00;;;;;;4954634;28;20462;-75
2022/03/01 13:08:57;;;;;;;10.10;7.27;;;12.50;63.00;;;;;;4954458;28;20521;-74
2022/03/01 13:11:24;;;;;;;12.77;8.03;;;12.60;63.30;;;;;;4954342;28;20459;-74
2022/03/01 13:13:54;;;;;;;9.57;6.23;;;12.70;65.00;;;;;;4954538;28;20487;-74
2022/03/01 13:16:22;;;;;;;11.20;6.80;;;12.80;63.90;;;;;;4954742;28;20848;-73
2022/03/01 13:18:51;;;;;;;9.87;7.60;;;12.90;62.00;;;;;;4954214;28;20445;-73
2022/03/01 13:21:26;;;;;;;8.70;7.03;;;12.60;60.80;;;;;;4954310;28;20453;-74
2022/03/01 13:23:56;;;;;;;10.30;7.13;;;12.40;59.70;;;;;;4953895;28;21074;-74
2022/03/01 13:26:23;;;;;;;11.77;7.47;;;12.20;59.70;;;;;;4954403;28;20453;-73
2022/03/01 13:28:51;;;;;;;9.63;6.77;;;12.20;62.10;;;;;;4954622;28;20535;-75
2022/03/01 13:31:23;;;;;;;10.07;7.40;;;12.30;64.80;;;;;;4954349;28;20513;-74
2022/03/01 13:33:56;;;;;;;10.03;6.87;;;12.50;63.90;;;;;;4954004;28;20476;-74
2022/03/01 13:36:26;;;;;;;11.20;7.00;;;12.60;62.40;;;;;;4953963;28;20456;-74
2022/03/01 13:39:00;;;;;;;10.10;7.13;;;12.40;59.30;;;;;;4953819;28;20460;-74
2022/03/01 13:41:29;;;;;;;10.63;7.17;;;12.20;60.30;;;;;;4954349;28;20527;-74
2022/03/01 13:43:56;;;;;;;11.77;7.30;;;12.20;61.00;;;;;;4953767;28;20504;-74
2022/03/01 13:46:23;;;;;;;10.90;6.40;;;12.30;62.10;;;;;;4953786;28;20544;-74
2022/03/01 13:48:50;;;;;;;9.50;6.70;;;12.40;59.90;;;;;;4953485;28;20532;-74
2022/03/01 13:51:19;;;;;;;8.97;6.83;;;12.40;61.60;;;;;;4953914;28;20904;-76
2022/03/01 13:53:49;;;;;;;9.20;7.33;;;12.20;59.20;;;;;;4953679;28;20472;-73
2022/03/01 13:56:22;;;;;;;11.33;7.70;;;11.90;60.10;;;;;;4954113;28;20463;-73
2022/03/01 13:58:48;;;;;;;11.70;7.90;;;11.80;60.80;;;;;;4953793;28;20460;-73
2022/03/01 14:01:16;;;;;;;12.50;8.43;;;11.90;63.10;;;;;;4953634;28;21186;-73
2022/03/01 14:03:43;;;;;;;11.23;7.33;;;12.00;61.60;;;;;;4953783;28;20496;-73
2022/03/01 14:06:13;;;;;;;8.50;6.63;;;12.00;61.70;;;;;;4953175;28;20476;-73
2022/03/01 14:08:42;;;;;;;10.43;7.10;;;12.10;63.80;;;;;;4953731;28;20525;-73
2022/03/01 14:11:15;;;;;;;10.40;6.77;;;12.00;59.40;;;;;;4953590;28;20454;-73
2022/03/01 14:13:45;;;;;;;7.87;6.67;;;11.90;59.80;;;;;;4953343;28;20508;-73
2022/03/01 14:16:15;;;;;;;9.33;6.50;;;12.00;62.30;;;;;;4954019;28;20552;-73
2022/03/01 14:18:48;;;;;;;11.03;7.63;;;12.00;60.60;;;;;;4953616;28;20469;-73
2022/03/01 14:21:17;;;;;;;9.90;7.50;;;12.00;58.50;;;;;;4953754;28;20548;-74
2022/03/01 14:23:45;;;;;;;10.70;6.83;;;12.20;59.60;;;;;;4953449;28;20485;-74
2022/03/01 14:26:12;;;;;;;9.00;6.13;;;12.50;58.50;;;;;;4953429;28;20540;-74
2022/03/01 14:28:39;;;;;;;11.23;7.37;;;12.70;60.50;;;;;;4953558;28;20457;-74
2022/03/01 14:31:08;;;;;;;13.87;7.23;;;12.80;59.70;;;;;;4953368;28;20975;-74
2022/03/01 14:33:35;;;;;;;11.87;7.63;;;13.00;59.10;;;;;;4953523;28;20505;-74
2022/03/01 14:36:02;;;;;;;12.10;6.80;;;13.20;57.80;;;;;;4953455;28;20519;-74
2022/03/01 14:38:29;;;;;;;11.47;8.20;;;13.40;57.90;;;;;;4953359;28;20450;-74
2022/03/01 14:40:55;;;;;;;9.63;6.80;;;13.40;57.80;;;;;;4953005;28;20456;-74
2022/03/01 14:43:22;;;;;;;9.03;6.93;;;13.40;58.30;;;;;;4953212;28;20852;-75
2022/03/01 14:45:49;;;;;;;9.73;7.20;;;13.40;58.10;;;;;;4953346;28;20496;-75
2022/03/01 14:48:18;;;;;;;8.67;7.00;;;13.50;57.00;;;;;;4953413;28;20549;-75
2022/03/01 14:50:45;;;;;;;9.90;7.10;;;13.50;55.80;;;;;;4953560;28;20442;-75
2022/03/01 14:53:12;;;;;;;11.13;7.07;;;13.40;56.20;;;;;;4953167;28;20453;-75
2022/03/01 14:55:39;;;;;;;9.30;6.60;;;13.40;57.20;;;;;;4953024;28;20496;-75
2022/03/01 14:58:06;;;;;;;9.07;6.80;;;13.30;55.70;;;;;;4953556;28;20452;-75
2022/03/01 15:00:33;;;;;;;10.70;6.80;;;13.20;56.80;;;;;;4953236;28;20457;-75
2022/03/01 15:03:00;;;;;;;10.00;6.70;;;13.20;57.00;;;;;;4953209;29;20547;-75
2022/03/01 15:05:28;;;;;;;8.30;6.63;;;13.10;56.60;;;;;;4953089;29;20588;-75
2022/03/01 15:07:55;;;;;;;12.40;7.50;;;13.10;57.30;;;;;;4953100;28;20493;-75
2022/03/01 15:10:22;;;;;;;12.37;7.03;;;13.10;56.40;;;;;;4953240;28;20457;-75
2022/03/01 15:12:50;;;;;;;9.40;6.70;;;13.10;57.00;;;;;;4953306;28;20824;-75
2022/03/01 15:15:18;;;;;;;9.13;7.00;;;13.10;55.90;;;;;;4952929;28;20477;-75
2022/03/01 15:17:47;;;;;;;9.97;6.77;;;13.10;56.10;;;;;;4956302;28;20453;-75
2022/03/01 15:20:16;;;;;;;10.37;7.33;;;13.00;56.10;;;;;;4956352;28;20457;-75
2022/03/01 15:22:44;;;;;;;8.33;6.80;;;13.00;56.20;;;;;;4956537;28;20496;-75
2022/03/01 15:25:12;;;;;;;12.50;7.10;;;13.00;56.70;;;;;;4956566;28;20872;-75
2022/03/01 15:27:40;;;;;;;10.37;6.50;;;13.10;56.50;;;;;;4956550;28;20465;-75
2022/03/01 15:30:10;;;;;;;8.10;6.40;;;13.10;56.30;;;;;;4956351;28;20536;-75
2022/03/01 15:32:37;;;;;;;8.20;6.13;;;13.20;57.30;;;;;;4956328;28;20465;-75
2022/03/01 15:35:06;;;;;;;7.63;6.30;;;13.20;58.70;;;;;;4956008;28;20989;-75
2022/03/01 15:37:33;;;;;;;8.27;6.10;;;13.10;58.30;;;;;;4956638;28;20453;-75
2022/03/01 15:40:01;;;;;;;10.73;7.67;;;13.10;57.70;;;;;;4955925;28;20953;-75
2022/03/01 15:42:28;;;;;;;10.70;7.07;;;13.00;57.80;;;;;;4956282;28;20462;-75
2022/03/01 15:44:55;;;;;;;8.40;6.30;;;12.70;56.90;;;;;;4956381;28;20505;-75
2022/03/01 15:47:21;;;;;;;9.50;6.77;;;12.60;57.50;;;;;;4956205;28;20546;-75
2022/03/01 15:49:48;;;;;;;13.20;6.40;;;12.50;58.80;;;;;;4955697;28;20453;-76
2022/03/01 15:52:15;;;;;;;13.43;6.37;;;12.40;58.80;;;;;;4955852;28;20544;-75
2022/03/01 15:54:42;;;;;;;8.40;6.30;;;12.20;58.00;;;;;;4955776;28;20665;-75
2022/03/01 15:57:12;;;;;;;8.10;6.57;;;12.10;58.50;;;;;;4955942;28;20461;-75
2022/03/01 15:59:39;;;;;;;8.83;7.03;;;12.00;58.10;;;;;;4955499;28;20485;-75
2022/03/01 16:02:07;;;;;;;11.37;7.50;;;11.90;59.40;;;;;;4956112;28;20532;-75
2022/03/01 16:04:34;;;;;;;11.63;7.00;;;11.90;59.40;;;;;;4955747;28;20501;-75
2022/03/01 16:07:01;;;;;;;10.33;7.07;;;11.80;59.30;;;;;;4955866;29;20540;-75
2022/03/01 16:09:27;;;;;;;10.13;6.73;;;11.70;60.10;;;;;;4955438;28;20544;-75
2022/03/01 16:11:54;;;;;;;10.60;6.53;;;11.70;60.20;;;;;;4955671;28;20540;-74
2022/03/01 16:14:23;;;;;;;8.60;6.70;;;11.50;61.70;;;;;;4955378;28;20481;-75
2022/03/01 16:16:50;;;;;;;12.07;7.10;;;11.40;60.50;;;;;;4955749;28;20938;-75
2022/03/01 16:19:17;;;;;;;11.03;6.93;;;11.20;61.10;;;;;;4955292;28;20468;-75
2022/03/01 16:21:45;;;;;;;9.07;6.60;;;11.00;60.80;;;;;;4955376;28;20461;-75
2022/03/01 16:24:12;;;;;;;13.43;8.17;;;10.90;62.10;;;;;;4955207;28;20851;-75
2022/03/01 16:26:39;;;;;;;8.17;6.47;;;10.80;61.90;;;;;;4955239;28;20867;-75
2022/03/01 16:29:06;;;;;;;10.90;7.07;;;10.70;62.30;;;;;;4954611;28;20552;-75
2022/03/01 16:31:34;;;;;;;12.03;7.93;;;10.60;62.10;;;;;;4955096;28;20457;-75
2022/03/01 16:34:01;;;;;;;12.47;7.40;;;10.60;62.90;;;;;;4955234;28;20484;-75
2022/03/01 16:36:28;;;;;;;11.13;7.30;;;10.50;62.30;;;;;;4955141;28;20536;-75
2022/03/01 16:38:55;;;;;;;12.70;7.37;;;10.40;62.10;;;;;;4954804;28;20472;-75
2022/03/01 16:41:22;;;;;;;13.13;8.63;;;10.30;62.80;;;;;;4955074;28;20453;-75
2022/03/01 16:43:49;;;;;;;13.80;7.83;;;10.30;63.10;;;;;;4954692;28;20512;-75
2022/03/01 16:46:19;;;;;;;12.40;8.27;;;10.10;62.80;;;;;;4955101;28;20525;-75
2022/03/01 16:48:49;;;;;;;9.90;6.43;;;10.00;62.60;;;;;;4954929;28;20453;-75
2022/03/01 16:51:16;;;;;;;9.37;7.00;;;9.90;64.50;;;;;;4954953;28;20804;-75
2022/03/01 16:53:42;;;;;;;10.67;7.17;;;9.90;65.10;;;;;;4954721;28;20571;-75
2022/03/01 16:56:09;;;;;;;13.40;8.07;;;9.70;65.20;;;;;;4954602;28;20448;-75
2022/03/01 16:58:36;;;;;;;10.00;7.47;;;9.70;65.90;;;;;;4954498;28;21013;-75
2022/03/01 17:01:04;;;;;;;10.83;7.30;;;9.60;66.20;;;;;;4954699;28;20497;-75
2022/03/01 17:03:32;;;;;;;9.30;6.90;;;9.60;65.70;;;;;;4954608;28;20487;-75
2022/03/01 17:06:00;;;;;;;11.87;8.63;;;9.50;66.10;;;;;;4954403;28;20584;-75
2022/03/01 17:08:27;;;;;;;11.77;8.33;;;9.50;67.10;;;;;;4954330;28;20468;-75
2022/03/01 17:10:54;;;;;;;12.00;7.40;;;9.40;67.20;;;;;;4954185;28;20453;-75
2022/03/01 17:15:48;;;;;;;10.57;8.43;;;9.20;66.70;;;;;;4994136;23;20504;-77
2022/03/01 17:18:16;;;;;;;12.70;7.13;;;9.20;67.80;;;;;;4973688;28;20552;-77
2022/03/01 17:20:43;;;;;;;12.30;7.63;;;9.20;67.70;;;;;;4973617;28;20472;-79
2022/03/01 17:23:11;;;;;;;10.77;9.60;;;9.10;68.00;;;;;;4973691;28;20981;-78
2022/03/01 17:25:38;;;;;;;10.70;8.20;;;9.10;68.20;;;;;;4973528;28;20526;-78
2022/03/01 17:28:06;;;;;;;11.13;8.33;;;9.00;68.60;;;;;;4973854;28;20452;-78
2022/03/01 17:30:35;;;;;;;12.90;8.73;;;8.80;67.10;;;;;;4973411;28;20479;-78
2022/03/01 17:33:02;;;;;;;13.30;8.20;;;8.80;67.90;;;;;;4973897;28;20480;-80
2022/03/01 17:35:30;;;;;;;11.37;8.07;;;8.70;68.80;;;;;;4974491;28;20464;-78
2022/03/01 17:37:57;;;;;;;14.00;9.30;;;8.60;69.00;;;;;;4974017;28;20535;-79
2022/03/01 17:40:26;;;;;;;14.87;10.10;;;8.50;68.70;;;;;;4973422;28;20462;-79
2022/03/01 17:42:53;;;;;;;17.97;12.27;;;8.50;70.50;;;;;;4974322;28;20486;-78
2022/03/01 17:45:21;;;;;;;15.37;11.20;;;8.40;69.60;;;;;;4974077;28;20495;-78
2022/03/01 17:47:51;;;;;;;16.53;10.37;;;8.40;69.50;;;;;;4974793;28;20452;-79
2022/03/01 17:50:18;;;;;;;33.03;16.03;;;8.30;70.70;;;;;;4974945;28;20456;-79